地図

経路データ

SID SEASON NUMBER BASIN SUBBASIN NAME ISO_TIME NATURE LAT LON WMO_WIND WMO_PRES WMO_AGENCY TRACK_TYPE DIST2LAND LANDFALL IFLAG USA_AGENCY USA_ATCF_ID USA_LAT USA_LON USA_RECORD USA_STATUS USA_WIND USA_PRES USA_SSHS USA_R34_NE USA_R34_SE USA_R34_SW USA_R34_NW USA_R50_NE USA_R50_SE USA_R50_SW USA_R50_NW USA_R64_NE USA_R64_SE USA_R64_SW USA_R64_NW USA_POCI USA_ROCI USA_RMW USA_EYE TOKYO_LAT TOKYO_LON TOKYO_GRADE TOKYO_WIND TOKYO_PRES TOKYO_R50_DIR TOKYO_R50_LONG TOKYO_R50_SHORT TOKYO_R30_DIR TOKYO_R30_LONG TOKYO_R30_SHORT TOKYO_LAND CMA_LAT CMA_LON CMA_CAT CMA_WIND CMA_PRES HKO_LAT HKO_LON HKO_CAT HKO_WIND HKO_PRES NEWDELHI_LAT NEWDELHI_LON NEWDELHI_GRADE NEWDELHI_WIND NEWDELHI_PRES NEWDELHI_CI NEWDELHI_DP NEWDELHI_POCI REUNION_LAT REUNION_LON REUNION_TYPE REUNION_WIND REUNION_PRES REUNION_TNUM REUNION_CI REUNION_RMW REUNION_R34_NE REUNION_R34_SE REUNION_R34_SW REUNION_R34_NW REUNION_R50_NE REUNION_R50_SE REUNION_R50_SW REUNION_R50_NW REUNION_R64_NE REUNION_R64_SE REUNION_R64_SW REUNION_R64_NW BOM_LAT BOM_LON BOM_TYPE BOM_WIND BOM_PRES BOM_TNUM BOM_CI BOM_RMW BOM_R34_NE BOM_R34_SE BOM_R34_SW BOM_R34_NW BOM_R50_NE BOM_R50_SE BOM_R50_SW BOM_R50_NW BOM_R64_NE BOM_R64_SE BOM_R64_SW BOM_R64_NW BOM_ROCI BOM_POCI BOM_EYE BOM_POS_METHOD BOM_PRES_METHOD NADI_LAT NADI_LON NADI_CAT NADI_WIND NADI_PRES WELLINGTON_LAT WELLINGTON_LON WELLINGTON_WIND WELLINGTON_PRES DS824_LAT DS824_LON DS824_STAGE DS824_WIND DS824_PRES TD9636_LAT TD9636_LON TD9636_STAGE TD9636_WIND TD9636_PRES TD9635_LAT TD9635_LON TD9635_WIND TD9635_PRES TD9635_ROCI NEUMANN_LAT NEUMANN_LON NEUMANN_CLASS NEUMANN_WIND NEUMANN_PRES MLC_LAT MLC_LON MLC_CLASS MLC_WIND MLC_PRES USA_GUST BOM_GUST BOM_GUST_PER REUNION_GUST REUNION_GUST_PER USA_SEAHGT USA_SEARAD_NE USA_SEARAD_SE USA_SEARAD_SW USA_SEARAD_NW STORM_SPEED STORM_DIR
1889260N17088 1889 26 NI BB NOT_NAMED 1889-09-17 00:00:00 TS 17.4000 87.9000 main 331 331 _________O____ -1 17.4000 87.9000 TC 45 0 0
1889260N17088 1889 26 NI BB NOT_NAMED 1889-09-17 03:00:00 TS 17.4000 87.9000 main 331 331 _________PO___ -1 17.4000 87.9000 TC 45 17.4000 87.9000 3 0 0
1889260N17088 1889 26 NI BB NOT_NAMED 1889-09-17 06:00:00 TS 17.4038 87.8851 main 331 331 _________OP___ -1 17.4000 87.9000 TC 45 17.4096 87.8626 3 0 0
1889260N17088 1889 26 NI BB NOT_NAMED 1889-09-17 09:00:00 TS 17.4066 87.8744 main 331 331 _________PP___ -1 17.4000 87.9000 TC 45 17.4153 87.8402 3 0 0
1889260N17088 1889 26 NI BB NOT_NAMED 1889-09-17 12:00:00 TS 17.4067 87.8738 main 331 331 _________OP___ -1 17.4000 87.9000 TC 45 17.4134 87.8477 3 0 0
1889260N17088 1889 26 NI BB NOT_NAMED 1889-09-17 15:00:00 TS 17.4000 87.9000 main 331 331 _________PO___ -1 17.4000 87.9000 TC 45 17.4000 87.9000 3 1 106
1889260N17088 1889 26 NI BB NOT_NAMED 1889-09-17 18:00:00 TS 17.3875 87.9486 main 331 331 _________OP___ -1 17.4000 87.9000 TC 45 17.3750 87.9971 3 1 104
1889260N17088 1889 26 NI BB NOT_NAMED 1889-09-17 21:00:00 TS 17.3693 88.0234 main 336 336 _________PP___ -1 17.3848 87.9674 TC 45 17.3538 88.0793 3 0 104
1889260N17088 1889 26 NI BB NOT_NAMED 1889-09-18 00:00:00 TS 17.3779 87.9859 main 336 326 _________OP___ -1 17.4000 87.9000 TC 45 17.3558 88.0718 3 3 283
1889260N17088 1889 26 NI BB NOT_NAMED 1889-09-18 03:00:00 TS 17.4349 87.7312 main 321 295 _________PO___ -1 17.4698 87.5623 TC 45 17.4000 87.9000 3 7 283
1889260N17088 1889 26 NI BB NOT_NAMED 1889-09-18 06:00:00 TS 17.5477 87.2403 main 292 244 _________OP___ -1 17.6000 87.0000 TC 45 17.4955 87.4807 3 11 284
1889260N17088 1889 26 NI BB NOT_NAMED 1889-09-18 09:00:00 TS 17.7095 86.5875 main 244 170 _________PP___ -1 17.7853 86.2802 TC 45 17.6336 86.8949 3 14 285
1889260N17088 1889 26 NI BB NOT_NAMED 1889-09-18 12:00:00 TS 17.9024 85.8559 main 170 99 _________OP___ -1 18.0000 85.5000 TC 45 17.8048 86.2117 3 14 286
1889260N17088 1889 26 NI BB NOT_NAMED 1889-09-18 15:00:00 TS 18.0961 85.1674 main 99 30 _________PO___ -1 18.1921 84.8347 TC 41 18.0000 85.5000 3 14 287
1889260N17088 1889 26 NI BB NOT_NAMED 1889-09-18 18:00:00 TS 18.3083 84.4981 main 30 0 _________OP___ -1 18.4000 84.2000 TC 37 18.2165 84.7963 3 14 289
1889260N17088 1889 26 NI BB NOT_NAMED 1889-09-18 21:00:00 TS 18.5546 83.7896 main 0 0 _________PP___ -1 18.6578 83.4903 TC 33 18.4514 84.0889 3 14 291
1889260N17088 1889 26 NI BB NOT_NAMED 1889-09-19 00:00:00 TS 18.7927 83.1684 main 0 0 _________OP___ -1 18.9000 82.9000 TC 30 18.6854 83.4369 3 11 293
1889260N17088 1889 26 NI BB NOT_NAMED 1889-09-19 03:00:00 TS 18.9823 82.7411 main 0 0 _________PO___ -1 19.0646 82.5822 TC 30 18.9000 82.9000 1 7 297
1889260N17088 1889 26 NI BB NOT_NAMED 1889-09-19 06:00:00 TS 19.1290 82.4719 main 0 0 _________OP___ -1 19.2000 82.4000 TC 30 19.0580 82.5437 1 5 302
1889260N17088 1889 26 NI BB NOT_NAMED 1889-09-19 09:00:00 TS 19.2704 82.2494 main 0 0 _________PP___ -1 19.3425 82.1924 TC 30 19.1984 82.3063 1 5 307
1889260N17088 1889 26 NI BB NOT_NAMED 1889-09-19 12:00:00 TS 19.4198 82.0704 main 0 0 _________OP___ -1 19.5000 82.0000 TC 30 19.3397 82.1408 1 5 314
1889260N17088 1889 26 NI BB NOT_NAMED 1889-09-19 15:00:00 TS 19.5925 81.8962 main 0 0 _________PO___ -1 19.6850 81.7925 TC 30 19.5000 82.0000 1 5 316
1889260N17088 1889 26 NI BB NOT_NAMED 1889-09-19 18:00:00 TS 19.7936 81.6912 main 0 0 _________OP___ -1 19.9000 81.6000 TC 30 19.6872 81.7823 1 6 319
1889260N17088 1889 26 NI BB NOT_NAMED 1889-09-19 21:00:00 TS 20.0163 81.5051 main 0 0 _________PP___ -1 20.1350 81.4275 TC 30 19.8975 81.5828 1 6 327
1889260N17088 1889 26 NI BB NOT_NAMED 1889-09-20 00:00:00 TS 20.2670 81.3584 main 0 0 _________OP___ -1 20.4000 81.3000 TC 30 20.1341 81.4168 1 6 336
1889260N17088 1889 26 NI BB NOT_NAMED 1889-09-20 03:00:00 TS 20.5425 81.2600 main 0 0 _________PO___ -1 20.6850 81.2200 TC 30 20.4000 81.3000 1 6 347
1889260N17088 1889 26 NI BB NOT_NAMED 1889-09-20 06:00:00 TS 20.8481 81.2207 main 0 0 _________OP___ -1 21.0000 81.2000 TC 30 20.6961 81.2413 1 6 358
1889260N17088 1889 26 NI BB NOT_NAMED 1889-09-20 09:00:00 TS 21.1812 81.2336 main 0 0 _________PP___ -1 21.3425 81.2349 TC 30 21.0199 81.2322 1 7 5
1889260N17088 1889 26 NI BB NOT_NAMED 1889-09-20 12:00:00 TS 21.5293 81.2785 main 0 0 _________OP___ -1 21.7000 81.3000 TC 30 21.3587 81.2570 1 7 7
1889260N17088 1889 26 NI BB NOT_NAMED 1889-09-20 15:00:00 TS 21.8787 81.3250 main 0 0 _________PO___ -1 22.0575 81.3500 TC 30 21.7000 81.3000 1 7 7
1889260N17088 1889 26 NI BB NOT_NAMED 1889-09-20 18:00:00 TS 22.2064 81.3658 main 0 0 _________OP___ -1 22.4000 81.4000 TC 30 22.0128 81.3316 1 6 8
1889260N17088 1889 26 NI BB NOT_NAMED 1889-09-20 21:00:00 TS 22.5100 81.4138 main 0 0 _________PP___ -1 22.6925 81.4501 TC 30 22.3275 81.3776 1 6 9
1889260N17088 1889 26 NI BB NOT_NAMED 1889-09-21 00:00:00 TS 22.8267 81.4674 main 0 0 _________OP___ -1 23.0000 81.5000 TC 30 22.6534 81.4348 1 7 8
1889260N17088 1889 26 NI BB NOT_NAMED 1889-09-21 03:00:00 TS 23.1925 81.5213 main 0 0 _________PO___ -1 23.3850 81.5426 TC 30 23.0000 81.5000 1 8 7
1889260N17088 1889 26 NI BB NOT_NAMED 1889-09-21 06:00:00 TS 23.5912 81.5740 main 0 0 _________OP___ -1 23.8000 81.6000 TC 30 23.3824 81.5479 1 8 8
1889260N17088 1889 26 NI BB NOT_NAMED 1889-09-21 09:00:00 TS 23.9924 81.6454 main 0 0 _________PP___ -1 24.2000 81.6851 TC 30 23.7848 81.6057 1 8 11
1889260N17088 1889 26 NI BB NOT_NAMED 1889-09-21 12:00:00 TS 24.3974 81.7428 main 0 0 _________OP___ -1 24.6000 81.8000 TC 30 24.1949 81.6856 1 8 14
1889260N17088 1889 26 NI BB NOT_NAMED 1889-09-21 15:00:00 TS 24.8037 81.8638 main 0 0 _________PO___ -1 25.0074 81.9276 TC 30 24.6000 81.8000 1 8 18
1889260N17088 1889 26 NI BB NOT_NAMED 1889-09-21 18:00:00 TS 25.1660 82.0186 main 0 0 _________OP___ -1 25.4000 82.1000 TC 30 24.9905 81.9576 1 8 24
1889260N17088 1889 26 NI BB NOT_NAMED 1889-09-21 21:00:00 TS 25.5248 82.2235 main 0 0 _________PP___ -1 25.7601 82.3322 TC 30 25.3679 82.1510 1 8 29
1889260N17088 1889 26 NI BB NOT_NAMED 1889-09-22 00:00:00 TS 25.8575 82.4460 main 0 0 _________OP___ -1 26.1000 82.6000 TC 30 25.7363 82.3690 1 7 30
1889260N17088 1889 26 NI BB NOT_NAMED 1889-09-22 03:00:00 NR 26.1000 82.6000 main 0 __________O___ -1 TC 26.1000 82.6000 1 6 30

IBTrACS Databaseについて

本データベースは、米国NOAAが公開する1842年以降の世界の熱帯低気圧のベストトラックデータアーカイブInternational Best Track Archive for Climate Stewardship (IBTrACS)を、ウェブで閲覧しやすい形式に変換したものです。

最終更新日:2021-12-03